sensor_id;sensor_type;location;lat;lon;timestamp;temperature;humidity
324;DHT22;149;51.094;17.002;2023-02-21T00:01:43;10.00;99.90
324;DHT22;149;51.094;17.002;2023-02-21T00:04:29;10.00;99.90
324;DHT22;149;51.094;17.002;2023-02-21T00:07:14;10.00;99.90
324;DHT22;149;51.094;17.002;2023-02-21T00:10:00;10.00;99.90
324;DHT22;149;51.094;17.002;2023-02-21T00:12:45;10.00;99.90
324;DHT22;149;51.094;17.002;2023-02-21T00:15:31;10.00;99.90
324;DHT22;149;51.094;17.002;2023-02-21T00:18:16;10.00;99.90
324;DHT22;149;51.094;17.002;2023-02-21T00:21:03;9.90;99.90
324;DHT22;149;51.094;17.002;2023-02-21T00:23:49;10.00;99.90
324;DHT22;149;51.094;17.002;2023-02-21T00:26:34;9.90;99.90
324;DHT22;149;51.094;17.002;2023-02-21T00:29:19;10.00;99.90
324;DHT22;149;51.094;17.002;2023-02-21T00:32:05;9.90;99.90
324;DHT22;149;51.094;17.002;2023-02-21T00:34:51;9.90;99.90
324;DHT22;149;51.094;17.002;2023-02-21T00:37:36;10.10;99.90
324;DHT22;149;51.094;17.002;2023-02-21T00:40:22;9.90;99.90
324;DHT22;149;51.094;17.002;2023-02-21T00:43:07;9.90;99.90
324;DHT22;149;51.094;17.002;2023-02-21T00:45:53;9.90;99.90
324;DHT22;149;51.094;17.002;2023-02-21T00:48:38;9.90;99.90
324;DHT22;149;51.094;17.002;2023-02-21T00:51:25;9.90;99.90
324;DHT22;149;51.094;17.002;2023-02-21T00:54:10;9.90;99.90
324;DHT22;149;51.094;17.002;2023-02-21T00:56:55;9.90;99.90
324;DHT22;149;51.094;17.002;2023-02-21T00:59:41;10.00;99.90
324;DHT22;149;51.094;17.002;2023-02-21T01:02:26;9.80;99.90
324;DHT22;149;51.094;17.002;2023-02-21T01:05:12;9.90;99.90
324;DHT22;149;51.094;17.002;2023-02-21T01:07:57;9.90;99.90
324;DHT22;149;51.094;17.002;2023-02-21T01:10:44;9.90;99.90
324;DHT22;149;51.094;17.002;2023-02-21T01:13:29;10.00;99.90
324;DHT22;149;51.094;17.002;2023-02-21T01:16:15;9.90;99.90
324;DHT22;149;51.094;17.002;2023-02-21T01:19:01;9.90;99.90
324;DHT22;149;51.094;17.002;2023-02-21T01:21:47;9.80;99.90
324;DHT22;149;51.094;17.002;2023-02-21T01:24:33;9.90;99.90
324;DHT22;149;51.094;17.002;2023-02-21T01:27:18;10.00;99.90
324;DHT22;149;51.094;17.002;2023-02-21T01:30:05;9.80;99.90
324;DHT22;149;51.094;17.002;2023-02-21T01:32:51;9.80;99.90
324;DHT22;149;51.094;17.002;2023-02-21T01:35:38;9.80;99.90
324;DHT22;149;51.094;17.002;2023-02-21T01:38:24;9.70;99.90
324;DHT22;149;51.094;17.002;2023-02-21T01:41:09;9.90;99.90
324;DHT22;149;51.094;17.002;2023-02-21T01:44:02;9.80;99.90
324;DHT22;149;51.094;17.002;2023-02-21T01:46:48;9.80;99.90
324;DHT22;149;51.094;17.002;2023-02-21T01:49:37;9.70;99.90
324;DHT22;149;51.094;17.002;2023-02-21T01:52:24;9.70;99.90
324;DHT22;149;51.094;17.002;2023-02-21T01:55:10;9.70;99.90
324;DHT22;149;51.094;17.002;2023-02-21T01:57:56;9.60;99.90
324;DHT22;149;51.094;17.002;2023-02-21T02:00:43;9.60;99.90
324;DHT22;149;51.094;17.002;2023-02-21T02:03:30;9.60;99.90
324;DHT22;149;51.094;17.002;2023-02-21T02:06:16;9.60;99.90
324;DHT22;149;51.094;17.002;2023-02-21T02:09:18;9.60;99.90
324;DHT22;149;51.094;17.002;2023-02-21T02:15:16;9.50;99.90
324;DHT22;149;51.094;17.002;2023-02-21T02:21:01;9.50;99.90
324;DHT22;149;51.094;17.002;2023-02-21T02:23:44;9.50;99.90
324;DHT22;149;51.094;17.002;2023-02-21T02:29:31;9.50;99.90
324;DHT22;149;51.094;17.002;2023-02-21T02:32:14;9.50;99.90
324;DHT22;149;51.094;17.002;2023-02-21T02:40:56;9.50;99.90
324;DHT22;149;51.094;17.002;2023-02-21T02:43:30;9.50;99.90
324;DHT22;149;51.094;17.002;2023-02-21T02:48:37;9.50;99.90
324;DHT22;149;51.094;17.002;2023-02-21T02:51:08;9.50;99.90
324;DHT22;149;51.094;17.002;2023-02-21T02:53:36;9.50;99.90
324;DHT22;149;51.094;17.002;2023-02-21T02:56:10;9.50;99.90
324;DHT22;149;51.094;17.002;2023-02-21T02:58:47;9.50;99.90
324;DHT22;149;51.094;17.002;2023-02-21T03:01:32;9.50;99.90
324;DHT22;149;51.094;17.002;2023-02-21T03:04:19;9.50;99.90
324;DHT22;149;51.094;17.002;2023-02-21T03:10:36;9.50;99.90
324;DHT22;149;51.094;17.002;2023-02-21T03:13:42;9.50;99.90
324;DHT22;149;51.094;17.002;2023-02-21T03:21:28;9.60;99.90
324;DHT22;149;51.094;17.002;2023-02-21T03:23:59;9.50;99.90
324;DHT22;149;51.094;17.002;2023-02-21T03:26:30;9.60;99.90
324;DHT22;149;51.094;17.002;2023-02-21T03:29:01;9.50;99.90
324;DHT22;149;51.094;17.002;2023-02-21T03:31:35;9.50;99.90
324;DHT22;149;51.094;17.002;2023-02-21T03:34:04;9.60;99.90
324;DHT22;149;51.094;17.002;2023-02-21T03:36:32;9.60;99.90
324;DHT22;149;51.094;17.002;2023-02-21T03:38:58;9.60;99.90
324;DHT22;149;51.094;17.002;2023-02-21T03:41:25;9.60;99.90
324;DHT22;149;51.094;17.002;2023-02-21T03:43:54;9.50;99.90
324;DHT22;149;51.094;17.002;2023-02-21T03:46:21;9.50;99.90
324;DHT22;149;51.094;17.002;2023-02-21T03:48:48;9.50;99.90
324;DHT22;149;51.094;17.002;2023-02-21T03:51:15;9.60;99.90
324;DHT22;149;51.094;17.002;2023-02-21T03:53:42;9.60;99.90
324;DHT22;149;51.094;17.002;2023-02-21T03:56:09;9.60;99.90
324;DHT22;149;51.094;17.002;2023-02-21T03:58:36;9.50;99.90
324;DHT22;149;51.094;17.002;2023-02-21T04:01:04;9.60;99.90
324;DHT22;149;51.094;17.002;2023-02-21T04:03:31;9.50;99.90
324;DHT22;149;51.094;17.002;2023-02-21T04:05:58;9.60;99.90
324;DHT22;149;51.094;17.002;2023-02-21T04:08:25;9.70;99.90
324;DHT22;149;51.094;17.002;2023-02-21T04:10:52;9.60;99.90
324;DHT22;149;51.094;17.002;2023-02-21T04:13:19;9.70;99.90
324;DHT22;149;51.094;17.002;2023-02-21T04:15:48;9.60;99.90
324;DHT22;149;51.094;17.002;2023-02-21T04:18:15;9.60;99.90
324;DHT22;149;51.094;17.002;2023-02-21T04:20:42;9.60;99.90
324;DHT22;149;51.094;17.002;2023-02-21T04:23:09;9.50;99.90
324;DHT22;149;51.094;17.002;2023-02-21T04:25:36;9.60;99.90
324;DHT22;149;51.094;17.002;2023-02-21T04:28:03;9.70;99.90
324;DHT22;149;51.094;17.002;2023-02-21T04:30:30;9.70;99.90
324;DHT22;149;51.094;17.002;2023-02-21T04:32:57;9.60;99.90
324;DHT22;149;51.094;17.002;2023-02-21T04:35:25;9.70;99.90
324;DHT22;149;51.094;17.002;2023-02-21T04:37:51;9.60;99.90
324;DHT22;149;51.094;17.002;2023-02-21T04:40:18;9.70;99.90
324;DHT22;149;51.094;17.002;2023-02-21T04:42:45;9.70;99.90
324;DHT22;149;51.094;17.002;2023-02-21T04:45:12;9.70;99.90
324;DHT22;149;51.094;17.002;2023-02-21T04:47:42;9.60;99.90
324;DHT22;149;51.094;17.002;2023-02-21T04:50:12;9.70;99.90
324;DHT22;149;51.094;17.002;2023-02-21T04:52:39;9.60;99.90
324;DHT22;149;51.094;17.002;2023-02-21T04:55:07;9.60;99.90
324;DHT22;149;51.094;17.002;2023-02-21T04:57:34;9.50;99.90
324;DHT22;149;51.094;17.002;2023-02-21T05:00:02;9.60;99.90
324;DHT22;149;51.094;17.002;2023-02-21T05:02:32;9.30;99.90
324;DHT22;149;51.094;17.002;2023-02-21T05:04:59;9.20;99.90
324;DHT22;149;51.094;17.002;2023-02-21T05:07:26;9.10;99.90
324;DHT22;149;51.094;17.002;2023-02-21T05:09:53;9.30;99.90
324;DHT22;149;51.094;17.002;2023-02-21T05:12:20;9.10;99.90
324;DHT22;149;51.094;17.002;2023-02-21T05:14:47;9.10;99.90
324;DHT22;149;51.094;17.002;2023-02-21T05:17:14;9.20;99.90
324;DHT22;149;51.094;17.002;2023-02-21T05:19:41;9.10;99.90
324;DHT22;149;51.094;17.002;2023-02-21T05:22:08;9.20;99.90
324;DHT22;149;51.094;17.002;2023-02-21T05:24:40;9.10;99.90
324;DHT22;149;51.094;17.002;2023-02-21T05:27:10;9.10;99.90
324;DHT22;149;51.094;17.002;2023-02-21T05:29:45;9.20;99.90
324;DHT22;149;51.094;17.002;2023-02-21T05:32:11;9.20;99.90
324;DHT22;149;51.094;17.002;2023-02-21T05:34:39;9.30;99.90
324;DHT22;149;51.094;17.002;2023-02-21T05:37:10;9.20;99.90
324;DHT22;149;51.094;17.002;2023-02-21T05:39:37;9.30;99.90
324;DHT22;149;51.094;17.002;2023-02-21T05:42:05;9.40;99.90
324;DHT22;149;51.094;17.002;2023-02-21T05:44:33;9.40;99.90
324;DHT22;149;51.094;17.002;2023-02-21T05:47:01;9.40;99.90
324;DHT22;149;51.094;17.002;2023-02-21T05:49:28;9.50;99.90
324;DHT22;149;51.094;17.002;2023-02-21T05:51:55;9.40;99.90
324;DHT22;149;51.094;17.002;2023-02-21T05:54:22;9.50;99.90
324;DHT22;149;51.094;17.002;2023-02-21T05:56:50;9.50;99.90
324;DHT22;149;51.094;17.002;2023-02-21T05:59:18;9.50;99.90
324;DHT22;149;51.094;17.002;2023-02-21T06:01:47;9.60;99.90
324;DHT22;149;51.094;17.002;2023-02-21T06:04:14;9.60;99.90
324;DHT22;149;51.094;17.002;2023-02-21T06:06:41;9.80;99.90
324;DHT22;149;51.094;17.002;2023-02-21T06:09:08;9.60;99.90
324;DHT22;149;51.094;17.002;2023-02-21T06:11:37;9.50;99.90
324;DHT22;149;51.094;17.002;2023-02-21T06:14:07;9.50;99.90
324;DHT22;149;51.094;17.002;2023-02-21T06:16:36;9.50;99.90
324;DHT22;149;51.094;17.002;2023-02-21T06:19:05;9.40;99.90
324;DHT22;149;51.094;17.002;2023-02-21T06:21:33;9.20;99.90
324;DHT22;149;51.094;17.002;2023-02-21T06:24:01;9.20;99.90
324;DHT22;149;51.094;17.002;2023-02-21T06:26:28;9.10;99.90
324;DHT22;149;51.094;17.002;2023-02-21T06:28:55;9.20;99.90
324;DHT22;149;51.094;17.002;2023-02-21T06:31:22;9.10;99.90
324;DHT22;149;51.094;17.002;2023-02-21T06:33:49;9.20;99.90
324;DHT22;149;51.094;17.002;2023-02-21T06:36:20;9.20;99.90
324;DHT22;149;51.094;17.002;2023-02-21T06:38:48;9.20;99.90
324;DHT22;149;51.094;17.002;2023-02-21T06:41:18;9.20;99.90
324;DHT22;149;51.094;17.002;2023-02-21T06:43:47;9.10;99.90
324;DHT22;149;51.094;17.002;2023-02-21T06:46:23;9.20;99.90
324;DHT22;149;51.094;17.002;2023-02-21T06:48:51;9.30;99.90
324;DHT22;149;51.094;17.002;2023-02-21T06:51:18;9.30;99.90
324;DHT22;149;51.094;17.002;2023-02-21T06:53:48;9.30;99.90
324;DHT22;149;51.094;17.002;2023-02-21T06:56:16;9.40;99.90
324;DHT22;149;51.094;17.002;2023-02-21T06:58:43;9.50;99.90
324;DHT22;149;51.094;17.002;2023-02-21T07:01:10;9.60;99.90
324;DHT22;149;51.094;17.002;2023-02-21T07:03:40;9.60;99.90
324;DHT22;149;51.094;17.002;2023-02-21T07:06:09;9.80;99.90
324;DHT22;149;51.094;17.002;2023-02-21T07:08:36;9.80;99.90
324;DHT22;149;51.094;17.002;2023-02-21T07:11:03;10.00;99.90
324;DHT22;149;51.094;17.002;2023-02-21T07:13:32;9.90;99.90
324;DHT22;149;51.094;17.002;2023-02-21T07:16:00;9.90;99.90
324;DHT22;149;51.094;17.002;2023-02-21T07:18:27;10.10;99.90
324;DHT22;149;51.094;17.002;2023-02-21T07:20:55;10.10;99.90
324;DHT22;149;51.094;17.002;2023-02-21T07:23:22;10.20;99.90
324;DHT22;149;51.094;17.002;2023-02-21T07:25:49;10.20;99.90
324;DHT22;149;51.094;17.002;2023-02-21T07:28:16;10.20;99.90
324;DHT22;149;51.094;17.002;2023-02-21T07:30:43;10.40;99.90
324;DHT22;149;51.094;17.002;2023-02-21T07:33:10;10.60;99.90
324;DHT22;149;51.094;17.002;2023-02-21T07:35:37;10.60;99.90
324;DHT22;149;51.094;17.002;2023-02-21T07:38:04;10.40;99.90
324;DHT22;149;51.094;17.002;2023-02-21T07:40:31;10.30;99.90
324;DHT22;149;51.094;17.002;2023-02-21T07:42:59;10.20;99.90
324;DHT22;149;51.094;17.002;2023-02-21T07:45:27;10.20;99.90
324;DHT22;149;51.094;17.002;2023-02-21T07:47:54;10.20;99.90
324;DHT22;149;51.094;17.002;2023-02-21T07:50:20;10.30;99.90
324;DHT22;149;51.094;17.002;2023-02-21T07:52:49;10.30;99.90
324;DHT22;149;51.094;17.002;2023-02-21T07:55:16;10.30;99.90
324;DHT22;149;51.094;17.002;2023-02-21T07:57:44;10.30;99.90
324;DHT22;149;51.094;17.002;2023-02-21T08:00:12;10.30;99.90
324;DHT22;149;51.094;17.002;2023-02-21T08:02:39;10.30;99.90
324;DHT22;149;51.094;17.002;2023-02-21T08:05:07;10.20;99.90
324;DHT22;149;51.094;17.002;2023-02-21T08:07:34;10.30;99.90
324;DHT22;149;51.094;17.002;2023-02-21T08:10:03;10.40;99.90
324;DHT22;149;51.094;17.002;2023-02-21T08:12:30;10.30;99.90
324;DHT22;149;51.094;17.002;2023-02-21T08:14:57;10.40;99.90
324;DHT22;149;51.094;17.002;2023-02-21T08:17:24;10.40;99.90
324;DHT22;149;51.094;17.002;2023-02-21T08:19:51;10.40;99.90
324;DHT22;149;51.094;17.002;2023-02-21T08:22:18;10.50;99.90
324;DHT22;149;51.094;17.002;2023-02-21T08:24:48;10.50;99.90
324;DHT22;149;51.094;17.002;2023-02-21T08:27:16;10.50;99.90
324;DHT22;149;51.094;17.002;2023-02-21T08:29:43;10.50;99.90
324;DHT22;149;51.094;17.002;2023-02-21T08:32:10;10.30;99.90
324;DHT22;149;51.094;17.002;2023-02-21T08:34:38;10.30;99.90
324;DHT22;149;51.094;17.002;2023-02-21T08:37:05;10.40;99.90
324;DHT22;149;51.094;17.002;2023-02-21T08:39:43;10.30;99.90
324;DHT22;149;51.094;17.002;2023-02-21T08:42:11;10.40;99.90
324;DHT22;149;51.094;17.002;2023-02-21T08:44:42;10.40;99.90
324;DHT22;149;51.094;17.002;2023-02-21T08:47:09;10.50;99.90
324;DHT22;149;51.094;17.002;2023-02-21T08:49:36;10.50;99.90
324;DHT22;149;51.094;17.002;2023-02-21T08:52:10;10.60;99.90
324;DHT22;149;51.094;17.002;2023-02-21T08:54:37;10.90;99.90
324;DHT22;149;51.094;17.002;2023-02-21T08:57:04;11.10;99.90
324;DHT22;149;51.094;17.002;2023-02-21T08:59:31;11.00;99.90
324;DHT22;149;51.094;17.002;2023-02-21T09:02:02;11.00;99.90
324;DHT22;149;51.094;17.002;2023-02-21T09:04:29;10.90;99.90
324;DHT22;149;51.094;17.002;2023-02-21T09:06:56;10.90;99.90
324;DHT22;149;51.094;17.002;2023-02-21T09:09:23;10.90;99.90
324;DHT22;149;51.094;17.002;2023-02-21T09:11:50;10.80;99.90
324;DHT22;149;51.094;17.002;2023-02-21T09:14:17;10.90;99.90
324;DHT22;149;51.094;17.002;2023-02-21T09:16:44;10.80;99.90
324;DHT22;149;51.094;17.002;2023-02-21T09:19:13;11.00;99.90
324;DHT22;149;51.094;17.002;2023-02-21T09:21:45;11.00;99.90
324;DHT22;149;51.094;17.002;2023-02-21T09:24:12;10.90;99.90
324;DHT22;149;51.094;17.002;2023-02-21T09:26:39;10.90;99.90
324;DHT22;149;51.094;17.002;2023-02-21T09:29:06;11.00;99.90
324;DHT22;149;51.094;17.002;2023-02-21T09:31:33;11.20;99.90
324;DHT22;149;51.094;17.002;2023-02-21T09:34:00;11.30;99.90
324;DHT22;149;51.094;17.002;2023-02-21T09:36:27;11.20;99.90
324;DHT22;149;51.094;17.002;2023-02-21T09:38:54;11.20;99.90
324;DHT22;149;51.094;17.002;2023-02-21T09:41:24;11.30;99.90
324;DHT22;149;51.094;17.002;2023-02-21T09:43:53;11.40;99.90
324;DHT22;149;51.094;17.002;2023-02-21T09:46:35;11.70;99.90
324;DHT22;149;51.094;17.002;2023-02-21T09:49:06;11.70;99.90
324;DHT22;149;51.094;17.002;2023-02-21T09:51:37;11.80;99.90
324;DHT22;149;51.094;17.002;2023-02-21T09:54:16;12.00;99.90
324;DHT22;149;51.094;17.002;2023-02-21T09:56:45;12.20;99.90
324;DHT22;149;51.094;17.002;2023-02-21T09:59:13;12.30;99.90
324;DHT22;149;51.094;17.002;2023-02-21T10:10:37;11.90;99.90
324;DHT22;149;51.094;17.002;2023-02-21T10:13:09;11.80;99.90
324;DHT22;149;51.094;17.002;2023-02-21T10:15:44;11.90;99.90
324;DHT22;149;51.094;17.002;2023-02-21T10:20:57;12.50;99.90
324;DHT22;149;51.094;17.002;2023-02-21T10:23:40;12.50;99.90
324;DHT22;149;51.094;17.002;2023-02-21T10:26:12;12.30;99.90
324;DHT22;149;51.094;17.002;2023-02-21T10:28:39;12.10;99.90
324;DHT22;149;51.094;17.002;2023-02-21T10:31:21;12.10;99.90
324;DHT22;149;51.094;17.002;2023-02-21T10:33:49;12.00;99.90
324;DHT22;149;51.094;17.002;2023-02-21T10:36:18;12.00;99.90
324;DHT22;149;51.094;17.002;2023-02-21T10:38:57;11.90;99.90
324;DHT22;149;51.094;17.002;2023-02-21T10:41:28;11.80;99.90
324;DHT22;149;51.094;17.002;2023-02-21T10:44:00;11.70;99.90
324;DHT22;149;51.094;17.002;2023-02-21T10:46:34;11.50;99.90
324;DHT22;149;51.094;17.002;2023-02-21T10:49:28;11.50;99.90
324;DHT22;149;51.094;17.002;2023-02-21T10:52:12;11.10;99.90
324;DHT22;149;51.094;17.002;2023-02-21T10:54:40;10.60;99.90
324;DHT22;149;51.094;17.002;2023-02-21T10:57:09;10.30;99.90
324;DHT22;149;51.094;17.002;2023-02-21T10:59:39;10.30;99.90
324;DHT22;149;51.094;17.002;2023-02-21T11:02:30;10.30;99.90
324;DHT22;149;51.094;17.002;2023-02-21T11:05:15;10.30;99.90
324;DHT22;149;51.094;17.002;2023-02-21T11:07:59;10.50;99.90
324;DHT22;149;51.094;17.002;2023-02-21T11:10:30;10.60;99.90
324;DHT22;149;51.094;17.002;2023-02-21T11:13:17;10.80;99.90
324;DHT22;149;51.094;17.002;2023-02-21T11:15:46;10.90;99.90
324;DHT22;149;51.094;17.002;2023-02-21T11:18:14;10.90;99.90
324;DHT22;149;51.094;17.002;2023-02-21T11:20:42;11.20;99.90
324;DHT22;149;51.094;17.002;2023-02-21T11:23:45;11.30;99.90
324;DHT22;149;51.094;17.002;2023-02-21T11:26:15;11.60;99.90
324;DHT22;149;51.094;17.002;2023-02-21T11:28:44;11.90;99.90
324;DHT22;149;51.094;17.002;2023-02-21T11:33:57;12.20;99.90
324;DHT22;149;51.094;17.002;2023-02-21T11:36:28;12.20;99.90
324;DHT22;149;51.094;17.002;2023-02-21T11:39:31;12.20;99.90
324;DHT22;149;51.094;17.002;2023-02-21T11:42:23;12.10;99.90
324;DHT22;149;51.094;17.002;2023-02-21T11:45:27;12.10;99.90
324;DHT22;149;51.094;17.002;2023-02-21T11:47:56;12.10;99.90
324;DHT22;149;51.094;17.002;2023-02-21T11:50:28;12.10;99.90
324;DHT22;149;51.094;17.002;2023-02-21T11:53:12;12.10;99.90
324;DHT22;149;51.094;17.002;2023-02-21T11:55:42;12.10;99.90
324;DHT22;149;51.094;17.002;2023-02-21T11:58:38;12.20;99.90
324;DHT22;149;51.094;17.002;2023-02-21T12:01:14;12.30;99.90
324;DHT22;149;51.094;17.002;2023-02-21T12:09:08;13.30;99.90
324;DHT22;149;51.094;17.002;2023-02-21T12:23:17;12.20;99.90
324;DHT22;149;51.094;17.002;2023-02-21T12:28:55;12.70;99.90
324;DHT22;149;51.094;17.002;2023-02-21T12:37:39;12.60;99.90
324;DHT22;149;51.094;17.002;2023-02-21T12:40:28;12.60;99.90
324;DHT22;149;51.094;17.002;2023-02-21T12:48:32;12.90;99.90
324;DHT22;149;51.094;17.002;2023-02-21T12:51:06;12.80;99.90
324;DHT22;149;51.094;17.002;2023-02-21T12:53:48;12.50;99.90
324;DHT22;149;51.094;17.002;2023-02-21T12:56:27;12.50;99.90
324;DHT22;149;51.094;17.002;2023-02-21T12:59:05;12.60;99.90
324;DHT22;149;51.094;17.002;2023-02-21T13:01:39;12.50;99.90
324;DHT22;149;51.094;17.002;2023-02-21T13:06:52;12.30;99.90
324;DHT22;149;51.094;17.002;2023-02-21T13:09:34;12.20;99.90
324;DHT22;149;51.094;17.002;2023-02-21T13:12:15;12.20;99.90
324;DHT22;149;51.094;17.002;2023-02-21T13:17:14;12.40;99.90
324;DHT22;149;51.094;17.002;2023-02-21T13:20:09;12.50;99.90
324;DHT22;149;51.094;17.002;2023-02-21T13:29:25;12.10;99.90
324;DHT22;149;51.094;17.002;2023-02-21T13:32:01;12.10;99.90
324;DHT22;149;51.094;17.002;2023-02-21T13:34:35;12.00;99.90
324;DHT22;149;51.094;17.002;2023-02-21T13:37:06;11.90;99.90
324;DHT22;149;51.094;17.002;2023-02-21T13:39:34;11.80;99.90
324;DHT22;149;51.094;17.002;2023-02-21T13:42:10;11.80;99.90
324;DHT22;149;51.094;17.002;2023-02-21T13:44:43;11.80;99.90
324;DHT22;149;51.094;17.002;2023-02-21T13:47:20;11.80;99.90
324;DHT22;149;51.094;17.002;2023-02-21T13:49:52;11.80;99.90
324;DHT22;149;51.094;17.002;2023-02-21T13:57:49;11.80;99.90
324;DHT22;149;51.094;17.002;2023-02-21T14:02:57;11.80;99.90
324;DHT22;149;51.094;17.002;2023-02-21T14:13:48;11.90;99.90
324;DHT22;149;51.094;17.002;2023-02-21T14:24:18;12.40;99.90
324;DHT22;149;51.094;17.002;2023-02-21T14:29:34;12.70;99.90
324;DHT22;149;51.094;17.002;2023-02-21T14:42:42;12.50;99.90
324;DHT22;149;51.094;17.002;2023-02-21T14:48:00;12.20;99.90
324;DHT22;149;51.094;17.002;2023-02-21T14:56:33;11.90;99.90
324;DHT22;149;51.094;17.002;2023-02-21T15:10:04;11.90;99.90
324;DHT22;149;51.094;17.002;2023-02-21T15:12:38;11.90;99.90
324;DHT22;149;51.094;17.002;2023-02-21T15:15:10;11.80;99.90
324;DHT22;149;51.094;17.002;2023-02-21T15:17:39;11.70;99.90
324;DHT22;149;51.094;17.002;2023-02-21T15:20:16;11.60;99.90
324;DHT22;149;51.094;17.002;2023-02-21T15:22:43;11.70;99.90
324;DHT22;149;51.094;17.002;2023-02-21T15:25:14;11.70;99.90
324;DHT22;149;51.094;17.002;2023-02-21T15:30:30;11.50;99.90
324;DHT22;149;51.094;17.002;2023-02-21T15:33:18;11.40;99.90
324;DHT22;149;51.094;17.002;2023-02-21T15:35:55;11.40;99.90
324;DHT22;149;51.094;17.002;2023-02-21T15:38:36;11.50;99.90
324;DHT22;149;51.094;17.002;2023-02-21T15:41:12;11.60;99.90
324;DHT22;149;51.094;17.002;2023-02-21T15:43:50;11.70;99.90
324;DHT22;149;51.094;17.002;2023-02-21T15:46:25;11.50;99.90
324;DHT22;149;51.094;17.002;2023-02-21T15:48:59;11.40;99.90
324;DHT22;149;51.094;17.002;2023-02-21T15:51:27;11.30;99.90
324;DHT22;149;51.094;17.002;2023-02-21T15:56:44;11.10;99.90
324;DHT22;149;51.094;17.002;2023-02-21T15:59:23;10.90;99.90
324;DHT22;149;51.094;17.002;2023-02-21T16:04:38;10.70;99.90
324;DHT22;149;51.094;17.002;2023-02-21T16:07:12;10.70;99.90
324;DHT22;149;51.094;17.002;2023-02-21T16:09:51;10.60;99.90
324;DHT22;149;51.094;17.002;2023-02-21T16:12:38;10.50;99.90
324;DHT22;149;51.094;17.002;2023-02-21T16:15:20;10.30;99.90
324;DHT22;149;51.094;17.002;2023-02-21T16:17:56;10.20;99.90
324;DHT22;149;51.094;17.002;2023-02-21T16:20:30;10.10;99.90
324;DHT22;149;51.094;17.002;2023-02-21T16:23:24;10.00;99.90
324;DHT22;149;51.094;17.002;2023-02-21T16:28:25;9.70;99.90
324;DHT22;149;51.094;17.002;2023-02-21T16:30:52;9.60;99.90
324;DHT22;149;51.094;17.002;2023-02-21T16:33:21;9.70;99.90
324;DHT22;149;51.094;17.002;2023-02-21T16:35:48;9.70;99.90
324;DHT22;149;51.094;17.002;2023-02-21T16:38:18;9.60;99.90
324;DHT22;149;51.094;17.002;2023-02-21T16:40:46;9.60;99.90
324;DHT22;149;51.094;17.002;2023-02-21T16:43:22;9.60;99.90
324;DHT22;149;51.094;17.002;2023-02-21T16:45:51;9.50;99.90
324;DHT22;149;51.094;17.002;2023-02-21T16:48:22;9.50;99.90
324;DHT22;149;51.094;17.002;2023-02-21T16:50:52;9.30;99.90
324;DHT22;149;51.094;17.002;2023-02-21T16:53:20;9.30;99.90
324;DHT22;149;51.094;17.002;2023-02-21T16:55:49;9.20;99.90
324;DHT22;149;51.094;17.002;2023-02-21T16:58:27;9.20;99.90
324;DHT22;149;51.094;17.002;2023-02-21T17:01:02;9.20;99.90
324;DHT22;149;51.094;17.002;2023-02-21T17:03:30;9.30;99.90
324;DHT22;149;51.094;17.002;2023-02-21T17:05:58;9.40;99.90
324;DHT22;149;51.094;17.002;2023-02-21T17:08:26;9.50;99.90
324;DHT22;149;51.094;17.002;2023-02-21T17:10:55;9.40;99.90
324;DHT22;149;51.094;17.002;2023-02-21T17:13:23;9.50;99.90
324;DHT22;149;51.094;17.002;2023-02-21T17:15:52;9.50;99.90
324;DHT22;149;51.094;17.002;2023-02-21T17:18:20;9.60;99.90
324;DHT22;149;51.094;17.002;2023-02-21T17:20:47;9.70;99.90
324;DHT22;149;51.094;17.002;2023-02-21T17:23:14;9.60;99.90
324;DHT22;149;51.094;17.002;2023-02-21T17:25:41;9.50;99.90
324;DHT22;149;51.094;17.002;2023-02-21T17:28:07;9.40;99.90
324;DHT22;149;51.094;17.002;2023-02-21T17:30:34;9.40;99.90
324;DHT22;149;51.094;17.002;2023-02-21T17:33:01;9.30;99.90
324;DHT22;149;51.094;17.002;2023-02-21T17:35:28;9.20;99.90
324;DHT22;149;51.094;17.002;2023-02-21T17:37:56;9.10;99.90
324;DHT22;149;51.094;17.002;2023-02-21T17:40:27;9.00;99.90
324;DHT22;149;51.094;17.002;2023-02-21T17:42:56;9.00;99.90
324;DHT22;149;51.094;17.002;2023-02-21T17:45:28;9.10;99.90
324;DHT22;149;51.094;17.002;2023-02-21T17:47:54;9.00;99.90
324;DHT22;149;51.094;17.002;2023-02-21T17:50:21;9.00;99.90
324;DHT22;149;51.094;17.002;2023-02-21T17:52:48;9.00;99.90
324;DHT22;149;51.094;17.002;2023-02-21T17:55:22;9.00;99.90
324;DHT22;149;51.094;17.002;2023-02-21T17:57:52;9.10;99.90
324;DHT22;149;51.094;17.002;2023-02-21T18:00:22;9.20;99.90
324;DHT22;149;51.094;17.002;2023-02-21T18:02:51;9.30;99.90
324;DHT22;149;51.094;17.002;2023-02-21T18:05:19;9.30;99.90
324;DHT22;149;51.094;17.002;2023-02-21T18:07:51;9.30;99.90
324;DHT22;149;51.094;17.002;2023-02-21T18:10:23;9.20;99.90
324;DHT22;149;51.094;17.002;2023-02-21T18:12:51;9.20;99.90
324;DHT22;149;51.094;17.002;2023-02-21T18:15:20;9.20;99.90
324;DHT22;149;51.094;17.002;2023-02-21T18:17:47;9.40;99.90
324;DHT22;149;51.094;17.002;2023-02-21T18:20:15;9.30;99.90
324;DHT22;149;51.094;17.002;2023-02-21T18:22:42;9.30;99.90
324;DHT22;149;51.094;17.002;2023-02-21T18:25:11;9.30;99.90
324;DHT22;149;51.094;17.002;2023-02-21T18:27:40;9.30;99.90
324;DHT22;149;51.094;17.002;2023-02-21T18:30:08;9.20;99.90
324;DHT22;149;51.094;17.002;2023-02-21T18:32:35;9.20;99.90
324;DHT22;149;51.094;17.002;2023-02-21T18:35:04;9.30;99.90
324;DHT22;149;51.094;17.002;2023-02-21T18:37:31;9.30;99.90
324;DHT22;149;51.094;17.002;2023-02-21T18:39:58;9.40;99.90
324;DHT22;149;51.094;17.002;2023-02-21T18:42:25;9.50;99.90
324;DHT22;149;51.094;17.002;2023-02-21T18:44:52;9.50;99.90
324;DHT22;149;51.094;17.002;2023-02-21T18:47:19;9.60;99.90
324;DHT22;149;51.094;17.002;2023-02-21T18:49:47;9.70;99.90
324;DHT22;149;51.094;17.002;2023-02-21T18:52:14;9.60;99.90
324;DHT22;149;51.094;17.002;2023-02-21T18:54:46;9.50;99.90
324;DHT22;149;51.094;17.002;2023-02-21T18:57:20;9.60;99.90
324;DHT22;149;51.094;17.002;2023-02-21T18:59:47;9.60;99.90
324;DHT22;149;51.094;17.002;2023-02-21T19:02:17;9.50;99.90
324;DHT22;149;51.094;17.002;2023-02-21T19:04:46;9.40;99.90
324;DHT22;149;51.094;17.002;2023-02-21T19:07:14;9.00;99.90
324;DHT22;149;51.094;17.002;2023-02-21T19:09:46;8.80;99.90
324;DHT22;149;51.094;17.002;2023-02-21T19:12:14;8.90;99.90
324;DHT22;149;51.094;17.002;2023-02-21T19:14:41;9.00;99.90
324;DHT22;149;51.094;17.002;2023-02-21T19:17:08;9.10;99.90
324;DHT22;149;51.094;17.002;2023-02-21T19:19:36;9.00;99.90
324;DHT22;149;51.094;17.002;2023-02-21T19:22:04;8.80;99.90
324;DHT22;149;51.094;17.002;2023-02-21T19:24:33;8.60;99.90
324;DHT22;149;51.094;17.002;2023-02-21T19:27:00;8.80;99.90
324;DHT22;149;51.094;17.002;2023-02-21T19:29:29;8.80;99.90
324;DHT22;149;51.094;17.002;2023-02-21T19:31:56;8.70;99.90
324;DHT22;149;51.094;17.002;2023-02-21T19:34:26;8.70;99.90
324;DHT22;149;51.094;17.002;2023-02-21T19:36:52;8.50;99.90